Station History

Weather Underground - logo

Station Historical Data
Daily Summary for June 14, 2018 Units:  Metric    English   Both
« Previous Day
Next Day »
Daily Weekly Monthly Yearly Custom
  High: Low: Average:
Temperature: 37.8 °C 17.6 °C 27.9 °C
Dew Point: 16.8 °C 4.9 °C 12.5 °C
Humidity: 74 % 16 % 43 %
Wind Speed: 7.4 km/h 0 km/h 2.1 km/h
Wind Gust: 3.7 km/h - -
Wind:- - SSW
Pressure: 1007 hPa 1002.6 hPa -
Precipitation: 0 mm    
Historical Graphs
 
 
Tabular Data for June 14, 2018
Time Temperature Dew Point Pressure Wind Wind Speed Wind Gust Humidity Rainfall Rate (Hourly)
00:04 24.4 °C 16.4 °C 1003.9 hPa Calm     61 % 0 mm
00:09 24.1 °C 16.4 °C 1003.9 hPa Calm     62 % 0 mm
00:14 24.1 °C 16.3 °C 1003.9 hPa Calm     62 % 0 mm
00:19 24.1 °C 16.8 °C 1003.9 hPa Calm     64 % 0 mm
00:24 23.9 °C 16.7 °C 1003.9 hPa Calm     64 % 0 mm
00:29 23.8 °C 16.4 °C 1004.3 hPa Calm     63 % 0 mm
00:34 23.7 °C 16.5 °C 1004.3 hPa Calm     64 % 0 mm
00:39 23.7 °C 15.7 °C 1004.3 hPa Calm     61 % 0 mm
00:44 23.5 °C 16.1 °C 1004.3 hPa Calm     63 % 0 mm
00:49 23.2 °C 16 °C 1004.3 hPa Calm     64 % 0 mm
00:54 22.7 °C 16.1 °C 1004.3 hPa Calm     66 % 0 mm
00:59 22.3 °C 16.1 °C 1004.3 hPa SE 1.9 km/h   68 % 0 mm
01:05 21.9 °C 15.7 °C 1004.3 hPa Calm     68 % 0 mm
01:09 21.9 °C 15.9 °C 1004.3 hPa Calm     69 % 0 mm
01:14 21.8 °C 15.8 °C 1004.3 hPa Calm     69 % 0 mm
01:19 21.7 °C 15.7 °C 1004.3 hPa Calm     69 % 0 mm
01:24 21.6 °C 15.9 °C 1004.3 hPa Calm     70 % 0 mm
01:29 21.4 °C 15.9 °C 1004.3 hPa Calm     71 % 0 mm
01:34 21.4 °C 15.9 °C 1004.3 hPa Calm     71 % 0 mm
01:39 21.5 °C 15.8 °C 1004.3 hPa Calm     70 % 0 mm
01:45 21.6 °C 15.9 °C 1004.3 hPa NE 1.9 km/h   70 % 0 mm
01:49 21.6 °C 15.9 °C 1004.3 hPa Calm     70 % 0 mm
01:54 21.5 °C 15.3 °C 1004.3 hPa Calm     68 % 0 mm
01:59 21.2 °C 15.3 °C 1004.6 hPa Calm     69 % 0 mm
02:04 20.9 °C 15.2 °C 1004.6 hPa Calm     70 % 0 mm
02:09 20.7 °C 15.5 °C 1004.6 hPa Calm     72 % 0 mm
02:14 20.3 °C 15.3 °C 1004.6 hPa Calm     73 % 0 mm
02:19 20.2 °C 15.4 °C 1004.6 hPa Calm     74 % 0 mm
02:24 20.1 °C 15.3 °C 1004.6 hPa Calm     74 % 0 mm
02:30 20 °C 15.2 °C 1004.6 hPa Calm     74 % 0 mm
02:34 19.9 °C 15.2 °C 1004.6 hPa Calm     74 % 0 mm
02:39 19.9 °C 15.1 °C 1004.6 hPa Calm     74 % 0 mm
02:44 19.8 °C 15 °C 1004.6 hPa Calm     74 % 0 mm
02:49 19.7 °C 14.9 °C 1004.6 hPa Calm     74 % 0 mm
02:54 19.6 °C 14.6 °C 1004.6 hPa Calm     73 % 0 mm
02:59 19.7 °C 14.7 °C 1004.6 hPa Calm     73 % 0 mm
03:04 19.6 °C 14.6 °C 1004.6 hPa Calm     73 % 0 mm
03:09 19.6 °C 14.8 °C 1004.6 hPa Calm     74 % 0 mm
03:14 19.6 °C 14.6 °C 1004.6 hPa Calm     73 % 0 mm
03:19 19.6 °C 14.4 °C 1004.6 hPa Calm     72 % 0 mm
03:24 19.6 °C 13.9 °C 1005 hPa Calm   0.2 km/h 70 % 0 mm
03:29 19.4 °C 13.6 °C 1005 hPa SE 1.9 km/h   69 % 0 mm
03:34 19.3 °C 13.4 °C 1005 hPa SE 1.9 km/h 0.2 km/h 69 % 0 mm
03:39 19.2 °C 13.3 °C 1005 hPa Calm     69 % 0 mm
03:44 19.1 °C 13.2 °C 1005 hPa Calm     69 % 0 mm
03:49 19 °C 13.4 °C 1005 hPa Calm     70 % 0 mm
03:54 18.8 °C 13.2 °C 1005 hPa SE 1.9 km/h   70 % 0 mm
03:59 18.8 °C 13.4 °C 1005 hPa Calm     71 % 0 mm
04:04 18.6 °C 13.2 °C 1005.3 hPa Calm     71 % 0 mm
04:09 18.5 °C 13.3 °C 1005.3 hPa SE 1.9 km/h   72 % 0 mm
04:14 18.4 °C 13.4 °C 1005.3 hPa Calm     73 % 0 mm
04:20 18.3 °C 13.4 °C 1005.3 hPa Calm     73 % 0 mm
04:24 18.4 °C 13.3 °C 1005.3 hPa Calm     72 % 0 mm
04:29 18.4 °C 13.5 °C 1005.3 hPa Calm     73 % 0 mm
04:34 18.4 °C 13.2 °C 1005.3 hPa Calm     72 % 0 mm
04:39 18.3 °C 13.4 °C 1005.3 hPa Calm     73 % 0 mm
04:44 18.1 °C 13.2 °C 1005.3 hPa Calm     73 % 0 mm
04:49 18 °C 12.7 °C 1005.3 hPa Calm     71 % 0 mm
04:54 18 °C 12.9 °C 1005.3 hPa Calm     72 % 0 mm
04:59 18 °C 12.4 °C 1005.3 hPa ESE 1.9 km/h   70 % 0 mm
05:04 18.1 °C 12.5 °C 1005.3 hPa Calm     70 % 0 mm
05:09 18 °C 12.7 °C 1005.6 hPa Calm     71 % 0 mm
05:14 17.9 °C 12.6 °C 1005.6 hPa Calm     71 % 0 mm
05:19 17.8 °C 12.7 °C 1005.6 hPa Calm     72 % 0 mm
05:24 17.8 °C 12.7 °C 1005.6 hPa Calm     72 % 0 mm
05:29 17.8 °C 12.7 °C 1005.6 hPa Calm     72 % 0 mm
05:34 17.7 °C 12.8 °C 1005.6 hPa Calm     73 % 0 mm
05:39 17.7 °C 12.8 °C 1006 hPa Calm     73 % 0 mm
05:44 17.7 °C 12.8 °C 1006 hPa Calm     73 % 0 mm
05:49 17.6 °C 12.7 °C 1006 hPa Calm     73 % 0 mm
05:54 17.6 °C 12.7 °C 1006 hPa Calm     73 % 0 mm
05:59 17.6 °C 12.7 °C 1006 hPa Calm     73 % 0 mm
06:04 17.7 °C 12.8 °C 1006 hPa Calm     73 % 0 mm
06:09 17.7 °C 12.8 °C 1006 hPa Calm     73 % 0 mm
06:14 17.7 °C 12.8 °C 1006 hPa Calm     73 % 0 mm
06:19 17.8 °C 12.9 °C 1006.3 hPa Calm     73 % 0 mm
06:24 17.8 °C 12.9 °C 1006.3 hPa Calm     73 % 0 mm
06:29 18.1 °C 13.2 °C 1006.3 hPa Calm     73 % 0 mm
06:34 18.2 °C 13.1 °C 1006.3 hPa Calm     72 % 0 mm
06:39 18.7 °C 13.3 °C 1006.3 hPa Calm     71 % 0 mm
06:44 19.5 °C 13.2 °C 1006.7 hPa Calm     67 % 0 mm
06:49 20.3 °C 13.5 °C 1006.7 hPa SSE 3.7 km/h   65 % 0 mm
06:54 20.8 °C 13.5 °C 1006.7 hPa South 1.9 km/h   63 % 0 mm
06:59 21.1 °C 13.6 °C 1006.7 hPa Calm     62 % 0 mm
07:04 21.6 °C 13.5 °C 1006.7 hPa Calm     60 % 0 mm
07:09 22 °C 13.6 °C 1006.7 hPa Calm     59 % 0 mm
07:14 22.4 °C 13.4 °C 1006.7 hPa SSE 1.9 km/h   57 % 0 mm
07:19 22.7 °C 13.5 °C 1006.7 hPa SSW 1.9 km/h 0.5 km/h 56 % 0 mm
07:24 23 °C 13.4 °C 1006.7 hPa East 1.9 km/h   55 % 0 mm
07:29 23.3 °C 13.4 °C 1006.7 hPa SSW 3.7 km/h 0.3 km/h 54 % 0 mm
07:35 23.6 °C 13.7 °C 1006.7 hPa South 3.7 km/h 1 km/h 54 % 0 mm
07:39 23.8 °C 13.7 °C 1006.7 hPa SSW 1.9 km/h 0.5 km/h 53 % 0 mm
07:44 23.9 °C 13.8 °C 1007 hPa East 3.7 km/h 1.4 km/h 53 % 0 mm
07:49 24.2 °C 13.7 °C 1007 hPa South 3.7 km/h 1.6 km/h 52 % 0 mm
07:54 24.4 °C 13.9 °C 1007 hPa SE 1.9 km/h   52 % 0 mm
07:59 24.6 °C 13.7 °C 1007 hPa SSE 3.7 km/h 1.3 km/h 51 % 0 mm
08:04 24.8 °C 14.6 °C 1006.7 hPa SE 1.9 km/h 0.6 km/h 53 % 0 mm
08:09 25 °C 14.2 °C 1006.7 hPa SW 3.7 km/h 0.2 km/h 51 % 0 mm
08:14 25.3 °C 14.8 °C 1007 hPa SSW 1.9 km/h 0.2 km/h 52 % 0 mm
08:19 25.7 °C 14.8 °C 1007 hPa South 1.6 km/h 0.5 km/h 51 % 0 mm
08:24 26.2 °C 15.2 °C 1007 hPa Calm     51 % 0 mm
08:29 26.5 °C 14.3 °C 1007 hPa ESE 3.7 km/h 0.5 km/h 47 % 0 mm
08:34 26.2 °C 14 °C 1007 hPa SSE 5.6 km/h 0.3 km/h 47 % 0 mm
08:39 26.4 °C 14.6 °C 1006.7 hPa SE 1.6 km/h 0.5 km/h 48 % 0 mm
08:44 26.7 °C 14.4 °C 1007 hPa East 3.7 km/h 0.6 km/h 47 % 0 mm
08:49 26.9 °C 14.7 °C 1006.7 hPa South 3.7 km/h 1.1 km/h 47 % 0 mm
08:55 27.2 °C 15.2 °C 1006.7 hPa SSE 1.9 km/h 0.2 km/h 48 % 0 mm
08:59 27.3 °C 14.7 °C 1006.7 hPa SSW 5.6 km/h 0.5 km/h 46 % 0 mm
09:04 27.6 °C 15.2 °C 1006.7 hPa SE 3.7 km/h 0.6 km/h 47 % 0 mm
09:09 27.7 °C 14.7 °C 1006.7 hPa SSE 3.7 km/h 2.3 km/h 45 % 0 mm
09:14 27.8 °C 15.2 °C 1006.7 hPa SSE 3.7 km/h 1.1 km/h 46 % 0 mm
09:19 27.8 °C 15.2 °C 1006.7 hPa SW 6.4 km/h 1.6 km/h 46 % 0 mm
09:24 28 °C 14.6 °C 1006.7 hPa SSW 3.7 km/h 0.3 km/h 44 % 0 mm
09:29 28.2 °C 14.8 °C 1006.7 hPa ESE 5.6 km/h 1 km/h 44 % 0 mm
09:34 28.3 °C 15.3 °C 1006.7 hPa SSE 1.9 km/h 0.3 km/h 45 % 0 mm
09:39 28.6 °C 14.4 °C 1006.7 hPa SSW 1.9 km/h 0.2 km/h 42 % 0 mm
09:44 28.8 °C 14.9 °C 1006.7 hPa SSE 1.9 km/h 1 km/h 43 % 0 mm
09:49 28.9 °C 14.4 °C 1006.7 hPa East 5.6 km/h 2.4 km/h 41 % 0 mm
09:54 29.1 °C 14.9 °C 1006.7 hPa SSW 4.8 km/h 0.8 km/h 42 % 0 mm
09:59 29.3 °C 15.4 °C 1006.7 hPa South 5.6 km/h 1 km/h 43 % 0 mm
10:04 29.3 °C 14.7 °C 1006.7 hPa ESE 3.7 km/h 1.3 km/h 41 % 0 mm
10:09 29.3 °C 15.1 °C 1006.7 hPa South 5.6 km/h 0.8 km/h 42 % 0 mm
10:14 29.6 °C 15.7 °C 1006.7 hPa ESE 1.9 km/h 1 km/h 43 % 0 mm
10:19 29.7 °C 15.1 °C 1006.7 hPa SE 5.6 km/h 0.5 km/h 41 % 0 mm
10:24 29.8 °C 14.7 °C 1006.7 hPa South 5.6 km/h 2.3 km/h 40 % 0 mm
10:29 29.7 °C 15.1 °C 1006.7 hPa NNE 5.6 km/h 3.4 km/h 41 % 0 mm
10:34 30 °C 15.3 °C 1006.7 hPa ENE 3.7 km/h 0.2 km/h 41 % 0 mm
10:39 30.3 °C 16 °C 1006.7 hPa SSE 3.2 km/h 1 km/h 42 % 0 mm
10:44 30.5 °C 15.4 °C 1006.7 hPa SSE 7.4 km/h 3.7 km/h 40 % 0 mm
10:49 30.6 °C 15.4 °C 1006.7 hPa South 3.7 km/h 1.8 km/h 40 % 0 mm
10:55 30.9 °C 15.3 °C 1006.7 hPa ENE 7.4 km/h 3.4 km/h 39 % 0 mm
10:59 30.8 °C 14.9 °C 1006.7 hPa South 1.9 km/h   38 % 0 mm
11:04 31.1 °C 15.9 °C 1006.7 hPa SE 5.6 km/h 1.8 km/h 40 % 0 mm
11:10 31.3 °C 14.8 °C 1006.7 hPa NNW 3.7 km/h 1.1 km/h 37 % 0 mm
11:14 31.3 °C 14.4 °C 1006.7 hPa North 5.6 km/h 2.7 km/h 36 % 0 mm
11:19 31.4 °C 15 °C 1006.7 hPa NNW 3.7 km/h 2.4 km/h 37 % 0 mm
11:24 31.7 °C 14.3 °C 1006.7 hPa NNW 3.7 km/h 0.3 km/h 35 % 0 mm
11:29 31.7 °C 16.4 °C 1006.7 hPa SSE 3.7 km/h   40 % 0 mm
11:34 31.9 °C 14.9 °C 1006.7 hPa WSW 1.9 km/h 1.4 km/h 36 % 0 mm
11:39 32.1 °C 13.8 °C 1006.7 hPa WNW 3.7 km/h 1.6 km/h 33 % 0 mm
11:45 32.2 °C 15.7 °C 1006.7 hPa ENE 1.9 km/h 0.2 km/h 37 % 0 mm
11:49 32.3 °C 14.4 °C 1006.7 hPa NW 3.7 km/h 1 km/h 34 % 0 mm
11:54 32.2 °C 14.4 °C 1006.3 hPa WSW 3.2 km/h 1 km/h 34 % 0 mm
11:59 32.6 °C 13.8 °C 1006.7 hPa WNW 3.7 km/h 1.6 km/h 32 % 0 mm
12:04 32.8 °C 14.9 °C 1006.7 hPa SE 1.6 km/h   34 % 0 mm
12:10 33.1 °C 14.7 °C 1006.7 hPa NW 1.9 km/h 0.8 km/h 33 % 0 mm
12:14 32.9 °C 13.6 °C 1006.7 hPa ESE 3.7 km/h 1.6 km/h 31 % 0 mm
12:19 32.9 °C 13.5 °C 1006.3 hPa NW 3.7 km/h 1.1 km/h 31 % 0 mm
12:24 32.9 °C 13.5 °C 1006.3 hPa WNW 1.9 km/h 1.4 km/h 31 % 0 mm
12:29 32.7 °C 13.9 °C 1006.3 hPa NW 1.9 km/h 2.1 km/h 32 % 0 mm
12:34 32.9 °C 14.6 °C 1006.3 hPa NW 1.9 km/h 1.4 km/h 33 % 0 mm
12:39 33.3 °C 14.3 °C 1006.3 hPa NW 5.6 km/h 1 km/h 32 % 0 mm
12:44 33.3 °C 15.3 °C 1006.3 hPa West 3.7 km/h 1.9 km/h 34 % 0 mm
12:49 33.6 °C 15.6 °C 1006 hPa SSE 3.7 km/h 0.6 km/h 34 % 0 mm
12:54 33.9 °C 15.8 °C 1006 hPa WNW 3.7 km/h 1 km/h 34 % 0 mm
12:59 34.1 °C 15.1 °C 1006 hPa NW 1.9 km/h   32 % 0 mm
13:04 34.3 °C 15.2 °C 1006 hPa SE 3.7 km/h 0.8 km/h 32 % 0 mm
13:10 34.5 °C 14.4 °C 1006 hPa North 3.7 km/h 1.1 km/h 30 % 0 mm
13:14 34.6 °C 16 °C 1005.6 hPa SSE 3.7 km/h 0.3 km/h 33 % 0 mm
13:19 35.1 °C 14.9 °C 1005.6 hPa NW 3.7 km/h 1.4 km/h 30 % 0 mm
13:24 35.1 °C 13.8 °C 1005.6 hPa NW 1.9 km/h 0.8 km/h 28 % 0 mm
13:29 35.3 °C 15.6 °C 1005.6 hPa NE 1.9 km/h 1.3 km/h 31 % 0 mm
13:34 35.4 °C 14.7 °C 1005.6 hPa WNW 5.6 km/h 1.4 km/h 29 % 0 mm
13:39 35.6 °C 16.4 °C 1005.6 hPa SSE 1.9 km/h   32 % 0 mm
13:45 35.7 °C 16.4 °C 1005.3 hPa NW 4.8 km/h 1.4 km/h 32 % 0 mm
13:49 35.6 °C 14.8 °C 1005.3 hPa NW 3.7 km/h 1.8 km/h 29 % 0 mm
13:54 35.6 °C 14.2 °C 1005.3 hPa WNW 3.7 km/h 1.9 km/h 28 % 0 mm
13:59 35.5 °C 13.6 °C 1005.3 hPa NNW 5.6 km/h   27 % 0 mm
14:04 35.7 °C 14.3 °C 1005 hPa NNW 3.7 km/h 1.6 km/h 28 % 0 mm
14:09 35.7 °C 14.9 °C 1005 hPa SW 5.6 km/h 1.1 km/h 29 % 0 mm
14:14 35.8 °C 14.5 °C 1005 hPa NW 3.2 km/h 1.6 km/h 28 % 0 mm
14:19 36.4 °C 14.4 °C 1005 hPa East 1.9 km/h 2.4 km/h 27 % 0 mm
14:24 36.3 °C 13.7 °C 1005 hPa NW 5.6 km/h 1.4 km/h 26 % 0 mm
14:29 36.2 °C 13.7 °C 1005 hPa WSW 5.6 km/h 0.3 km/h 26 % 0 mm
14:35 36.6 °C 12.7 °C 1005 hPa WNW 1.9 km/h 0.6 km/h 24 % 0 mm
14:39 36.3 °C 13.1 °C 1005 hPa NW 3.7 km/h 3.1 km/h 25 % 0 mm
14:45 36.4 °C 14.4 °C 1004.6 hPa SSE 1.9 km/h 1.3 km/h 27 % 0 mm
14:49 36.6 °C 14 °C 1004.6 hPa NNW 1.9 km/h 1 km/h 26 % 0 mm
14:54 36.6 °C 12.7 °C 1004.6 hPa West 3.7 km/h 0.2 km/h 24 % 0 mm
14:59 36.6 °C 14 °C 1004.6 hPa WNW 3.7 km/h 0.3 km/h 26 % 0 mm
15:05 36.7 °C 13.4 °C 1004.6 hPa NW 3.7 km/h 1.4 km/h 25 % 0 mm
15:09 36.6 °C 13.4 °C 1004.6 hPa West 5.6 km/h 1.4 km/h 25 % 0 mm
15:15 37 °C 13.7 °C 1004.6 hPa SSE 1.9 km/h   25 % 0 mm
15:19 37.4 °C 12.8 °C 1004.3 hPa WNW 1.9 km/h 2.6 km/h 23 % 0 mm
15:25 37.3 °C 11.3 °C 1004.3 hPa NNW 5.6 km/h 2.6 km/h 21 % 0 mm
15:29 37.4 °C 12.1 °C 1004.3 hPa SSE 3.7 km/h 1 km/h 22 % 0 mm
15:34 37.6 °C 12.2 °C 1004.3 hPa NW 3.7 km/h 1.3 km/h 22 % 0 mm
15:39 37.2 °C 10.5 °C 1004.3 hPa NW 5.6 km/h 2.4 km/h 20 % 0 mm
15:44 37.1 °C 10.4 °C 1004.3 hPa WSW 5.6 km/h 2.6 km/h 20 % 0 mm
15:49 36.9 °C 10.3 °C 1003.9 hPa WNW 5.6 km/h 1.9 km/h 20 % 0 mm
15:54 36.9 °C 8.7 °C 1003.9 hPa WNW 3.7 km/h 2.4 km/h 18 % 0 mm
15:59 37.1 °C 9.7 °C 1003.9 hPa West 3.7 km/h 0.3 km/h 19 % 0 mm
16:04 37.3 °C 9.8 °C 1003.9 hPa North 3.7 km/h 0.3 km/h 19 % 0 mm
16:09 37.4 °C 9.9 °C 1003.9 hPa North 3.7 km/h 1.1 km/h 19 % 0 mm
16:14 37.6 °C 10.1 °C 1003.9 hPa WSW 4.8 km/h 1.9 km/h 19 % 0 mm
16:19 37.6 °C 10.8 °C 1003.9 hPa WSW 5.6 km/h 2.1 km/h 20 % 0 mm
16:24 37.6 °C 10.8 °C 1003.6 hPa NW 1.9 km/h 0.8 km/h 20 % 0 mm
16:29 37.8 °C 10.9 °C 1003.6 hPa WNW 1.9 km/h 0.6 km/h 20 % 0 mm
16:34 37.7 °C 10.9 °C 1003.6 hPa NW 3.2 km/h 1.4 km/h 20 % 0 mm
16:39 37.6 °C 10.8 °C 1003.6 hPa NW 1.9 km/h 0.3 km/h 20 % 0 mm
16:44 37.4 °C 9.1 °C 1003.6 hPa WNW 5.6 km/h 2.6 km/h 18 % 0 mm
16:49 37.3 °C 9 °C 1003.3 hPa NW 3.7 km/h 1.9 km/h 18 % 0 mm
16:54 37.3 °C 10.6 °C 1003.3 hPa WSW 1.9 km/h 0.8 km/h 20 % 0 mm
16:59 37.3 °C 8.2 °C 1003.3 hPa WNW 3.7 km/h 3.1 km/h 17 % 0 mm
17:04 37.3 °C 9.8 °C 1003.3 hPa NW 3.2 km/h 1.6 km/h 19 % 0 mm
17:09 37.3 °C 7.3 °C 1002.9 hPa North 3.7 km/h 0.3 km/h 16 % 0 mm
17:14 37.6 °C 8.3 °C 1002.9 hPa SW 3.7 km/h 0.6 km/h 17 % 0 mm
17:19 37.8 °C 10.2 °C 1002.9 hPa NW 3.7 km/h 1.8 km/h 19 % 0 mm
17:25 37.7 °C 7.6 °C 1002.9 hPa NW 1.9 km/h   16 % 0 mm
17:29 37.6 °C 8.4 °C 1002.6 hPa WNW 4.8 km/h 1.9 km/h 17 % 0 mm
17:34 37.4 °C 7.3 °C 1002.6 hPa North 7.4 km/h 3.5 km/h 16 % 0 mm
17:40 37.3 °C 8.2 °C 1002.6 hPa WNW 1.9 km/h 0.3 km/h 17 % 0 mm
17:44 37.5 °C 8.3 °C 1002.6 hPa NW 1.6 km/h 1.4 km/h 17 % 0 mm
17:49 37.4 °C 9.9 °C 1002.6 hPa NW 1.9 km/h 0.8 km/h 19 % 0 mm
17:55 37.4 °C 7.3 °C 1002.6 hPa WNW 3.7 km/h 0.8 km/h 16 % 0 mm
17:59 37.4 °C 9.9 °C 1002.6 hPa NE 1.9 km/h 0.2 km/h 19 % 0 mm
18:04 37.6 °C 10.8 °C 1002.6 hPa Calm   0.2 km/h 20 % 0 mm
18:09 37.5 °C 9.2 °C 1002.6 hPa NNW 1.9 km/h 0.2 km/h 18 % 0 mm
18:14 37.5 °C 9.9 °C 1002.6 hPa Calm     19 % 0 mm
18:19 37.7 °C 10.9 °C 1002.6 hPa Calm     20 % 0 mm
18:24 37.8 °C 10.2 °C 1002.6 hPa NW 1.9 km/h 2.6 km/h 19 % 0 mm
18:29 37.2 °C 10.5 °C 1002.6 hPa NW 1.6 km/h 1.1 km/h 20 % 0 mm
18:34 37.1 °C 10.4 °C 1002.6 hPa NW 1.9 km/h   20 % 0 mm
18:39 36.8 °C 9.4 °C 1002.6 hPa NW 3.2 km/h 1.3 km/h 19 % 0 mm
18:44 36.6 °C 8.4 °C 1002.6 hPa NW 1.9 km/h 0.6 km/h 18 % 0 mm
18:50 36.6 °C 8.4 °C 1002.6 hPa NW 1.9 km/h 1.3 km/h 18 % 0 mm
18:55 36.2 °C 9.7 °C 1002.6 hPa NW 1.9 km/h 0.2 km/h 20 % 0 mm
18:59 35.8 °C 8.6 °C 1002.6 hPa NW 1.9 km/h 1.4 km/h 19 % 0 mm
19:04 35.6 °C 8.4 °C 1002.6 hPa WNW 1.9 km/h 0.5 km/h 19 % 0 mm
19:10 35.7 °C 9.2 °C 1002.6 hPa WNW 1.9 km/h 0.5 km/h 20 % 0 mm
19:14 35.6 °C 9.2 °C 1002.6 hPa WNW 1.9 km/h   20 % 0 mm
19:19 35.2 °C 8.9 °C 1002.6 hPa WNW 1.9 km/h 0.5 km/h 20 % 0 mm
19:24 34.8 °C 9.3 °C 1002.6 hPa Calm     21 % 0 mm
19:29 34.5 °C 9.7 °C 1002.6 hPa NW 1.9 km/h   22 % 0 mm
19:34 34.3 °C 10.2 °C 1002.6 hPa Calm     23 % 0 mm
19:39 33.9 °C 10.5 °C 1002.6 hPa Calm     24 % 0 mm
19:44 33.4 °C 10.7 °C 1002.6 hPa Calm     25 % 0 mm
19:49 33 °C 12.6 °C 1002.6 hPa Calm     29 % 0 mm
19:54 32.3 °C 13.6 °C 1002.6 hPa Calm     32 % 0 mm
19:59 31.8 °C 13.1 °C 1002.6 hPa Calm     32 % 0 mm
20:04 31.4 °C 12.2 °C 1002.6 hPa Calm     31 % 0 mm
20:09 31 °C 13.7 °C 1002.6 hPa Calm     35 % 0 mm
20:14 30.5 °C 13.7 °C 1002.6 hPa Calm     36 % 0 mm
20:19 30 °C 11.5 °C 1002.6 hPa Calm     32 % 0 mm
20:24 29.7 °C 11.7 °C 1002.6 hPa Calm     33 % 0 mm
20:29 29.2 °C 12.1 °C 1002.6 hPa ESE 1.9 km/h   35 % 0 mm
20:34 28.7 °C 11.7 °C 1002.6 hPa Calm     35 % 0 mm
20:39 28.3 °C 10.9 °C 1002.6 hPa Calm     34 % 0 mm
20:44 28 °C 11.1 °C 1002.9 hPa Calm     35 % 0 mm
20:49 27.6 °C 11.2 °C 1002.9 hPa Calm     36 % 0 mm
20:54 27.2 °C 10.8 °C 1002.9 hPa ESE 1.9 km/h   36 % 0 mm
20:59 26.9 °C 11 °C 1002.9 hPa SE 1.9 km/h   37 % 0 mm
21:05 26.8 °C 10.1 °C 1002.9 hPa ESE 1.9 km/h 0.2 km/h 35 % 0 mm
21:09 26.8 °C 10.5 °C 1002.9 hPa SE 1.9 km/h   36 % 0 mm
21:14 26.8 °C 10.1 °C 1003.3 hPa ESE 1.9 km/h 0.2 km/h 35 % 0 mm
21:19 26.7 °C 9.5 °C 1003.3 hPa SE 3.7 km/h 1.1 km/h 34 % 0 mm
21:24 26.4 °C 9.3 °C 1003.3 hPa ESE 1.9 km/h 0.8 km/h 34 % 0 mm
21:29 26.1 °C 9 °C 1003.3 hPa SE 3.2 km/h 0.5 km/h 34 % 0 mm
21:34 26.1 °C 8.1 °C 1003.3 hPa SE 3.7 km/h 0.8 km/h 32 % 0 mm
21:39 26.2 °C 8.2 °C 1003.6 hPa SE 1.9 km/h   32 % 0 mm
21:44 26 °C 8.5 °C 1003.6 hPa ESE 1.9 km/h   33 % 0 mm
21:49 25.7 °C 8.2 °C 1003.9 hPa ESE 1.9 km/h   33 % 0 mm
21:54 25.6 °C 7.6 °C 1003.9 hPa East 1.9 km/h   32 % 0 mm
21:59 25.6 °C 7.2 °C 1003.9 hPa ESE 1.9 km/h 0.2 km/h 31 % 0 mm
22:05 25.5 °C 7.1 °C 1003.9 hPa ESE 1.9 km/h 0.2 km/h 31 % 0 mm
22:09 25.3 °C 6.9 °C 1004.3 hPa SE 5.6 km/h 0.2 km/h 31 % 0 mm
22:14 25.2 °C 6.9 °C 1004.3 hPa East 3.7 km/h 0.2 km/h 31 % 0 mm
22:19 25.2 °C 6.9 °C 1004.3 hPa ESE 1.9 km/h 0.2 km/h 31 % 0 mm
22:24 25.3 °C 6.4 °C 1004.3 hPa ESE 6.4 km/h 1.4 km/h 30 % 0 mm
22:30 25.2 °C 6.4 °C 1004.3 hPa SSE 1.9 km/h 0.3 km/h 30 % 0 mm
22:34 25.2 °C 6.3 °C 1004.3 hPa NE 1.6 km/h 0.2 km/h 30 % 0 mm
22:39 25.2 °C 6.3 °C 1004.3 hPa East 1.9 km/h 0.5 km/h 30 % 0 mm
22:45 25.1 °C 5.8 °C 1004.3 hPa ESE 5.6 km/h 0.8 km/h 29 % 0 mm
22:49 24.9 °C 5.7 °C 1004.3 hPa Calm     29 % 0 mm
22:54 24.8 °C 5.6 °C 1004.3 hPa SE 1.9 km/h   29 % 0 mm
22:59 24.6 °C 5.3 °C 1004.3 hPa Calm     29 % 0 mm
23:04 24.3 °C 5.2 °C 1004.3 hPa SE 1.9 km/h 0.3 km/h 29 % 0 mm
23:09 24.1 °C 4.9 °C 1004.3 hPa ESE 1.9 km/h 0.5 km/h 29 % 0 mm
23:14 23.9 °C 5.3 °C 1004.3 hPa Calm     30 % 0 mm
23:19 23.7 °C 5.6 °C 1004.3 hPa Calm     31 % 0 mm
23:24 23.4 °C 5.7 °C 1004.3 hPa Calm     32 % 0 mm
23:29 23.2 °C 6 °C 1004.3 hPa Calm     33 % 0 mm
23:35 23 °C 5.8 °C 1004.3 hPa Calm     33 % 0 mm
23:39 22.8 °C 6.6 °C 1004.6 hPa Calm     35 % 0 mm
23:45 22.5 °C 6.3 °C 1004.3 hPa Calm     35 % 0 mm
23:49 22.3 °C 6.5 °C 1004.3 hPa Calm     36 % 0 mm
23:54 22.1 °C 6.7 °C 1004.3 hPa Calm     37 % 0 mm
23:59 21.8 °C 7.3 °C 1004.3 hPa Calm     39 % 0 mm
Park Place, Exeter, Tulare County, California, USA
Compliments of Weather Underground - 2.75 mb